Terminal Aerodrome Forecast
Issued by NWS

Home | Current Version | Previous Version | Text Only | Print | Product List | Glossary On
Versions: 1 2 3 4 5 6 7 8 9 10 11 12 13 14 15 16 17
000
FTUS41 KPBZ 261700
TAFMGW
TAF
KMGW 261720Z 2618/2718 21008KT P6SM SCT060
     FM270200 21005KT P6SM VCSH BKN050
     FM270900 20005KT 5SM -SHRA VCTS OVC030CB
     FM271200 23005KT P6SM VCSH BKN035
     FM271700 23008KT 6SM -SHRA VCTS OVC035CB=

USA.gov is the U.S. government's official web portal to all federal, state and local government web resources and services.